Terminal Aerodrome Forecast
Issued by NWS Jackson, MS

Home | Current Version | Previous Version | Text Only | Print | Product List | Glossary On
Versions: 1 2 3 4 5 6 7 8 9 10 11 12 13 14 15 16 17
000
FTUS44 KJAN 230600 RRA
TAFMEI
TAF
KMEI 230624Z 2306/2406 00000KT P6SM FEW250
     FM230800 00000KT 4SM BR SKC
      TEMPO 2308/2310 2SM BR
     FM231400 15004KT P6SM SCT250
     FM231900 34005KT P6SM VCTS SCT050CB BKN250=

USA.gov is the U.S. government's official web portal to all federal, state and local government web resources and services.